sensor_id;sensor_type;location;lat;lon;timestamp;P1;durP1;ratioP1;P2;durP2;ratioP2
14892;SDS011;7538;53.626;9.906;2023-07-08T00:01:59;5.63;;;4.82;;
14892;SDS011;7538;53.626;9.906;2023-07-08T00:04:25;5.70;;;5.05;;
14892;SDS011;7538;53.626;9.906;2023-07-08T00:06:52;7.72;;;5.22;;
14892;SDS011;7538;53.626;9.906;2023-07-08T00:09:19;5.97;;;5.15;;
14892;SDS011;7538;53.626;9.906;2023-07-08T00:11:46;6.15;;;5.65;;
14892;SDS011;7538;53.626;9.906;2023-07-08T00:14:13;5.43;;;4.93;;
14892;SDS011;7538;53.626;9.906;2023-07-08T00:16:40;5.78;;;5.07;;
14892;SDS011;7538;53.626;9.906;2023-07-08T00:19:11;5.30;;;4.78;;
14892;SDS011;7538;53.626;9.906;2023-07-08T00:21:37;5.45;;;4.95;;
14892;SDS011;7538;53.626;9.906;2023-07-08T00:24:04;5.88;;;5.30;;
14892;SDS011;7538;53.626;9.906;2023-07-08T00:26:32;6.25;;;5.18;;
14892;SDS011;7538;53.626;9.906;2023-07-08T00:28:59;7.38;;;5.90;;
14892;SDS011;7538;53.626;9.906;2023-07-08T00:31:25;5.40;;;4.90;;
14892;SDS011;7538;53.626;9.906;2023-07-08T00:33:53;5.43;;;4.88;;
14892;SDS011;7538;53.626;9.906;2023-07-08T00:36:22;6.13;;;5.43;;
14892;SDS011;7538;53.626;9.906;2023-07-08T00:38:51;8.82;;;5.40;;
14892;SDS011;7538;53.626;9.906;2023-07-08T00:41:18;6.65;;;5.78;;
14892;SDS011;7538;53.626;9.906;2023-07-08T00:43:49;6.13;;;5.53;;
14892;SDS011;7538;53.626;9.906;2023-07-08T00:46:22;8.63;;;5.65;;
14892;SDS011;7538;53.626;9.906;2023-07-08T00:49:14;6.15;;;5.47;;
14892;SDS011;7538;53.626;9.906;2023-07-08T00:51:51;6.40;;;5.80;;
14892;SDS011;7538;53.626;9.906;2023-07-08T00:54:18;6.53;;;5.78;;
14892;SDS011;7538;53.626;9.906;2023-07-08T00:56:46;6.60;;;5.57;;
14892;SDS011;7538;53.626;9.906;2023-07-08T00:59:17;8.55;;;5.65;;
14892;SDS011;7538;53.626;9.906;2023-07-08T01:01:49;7.32;;;5.57;;
14892;SDS011;7538;53.626;9.906;2023-07-08T01:04:18;5.75;;;5.22;;
14892;SDS011;7538;53.626;9.906;2023-07-08T01:06:49;6.07;;;5.47;;
14892;SDS011;7538;53.626;9.906;2023-07-08T01:09:23;7.90;;;6.00;;
14892;SDS011;7538;53.626;9.906;2023-07-08T01:11:53;6.90;;;5.85;;
14892;SDS011;7538;53.626;9.906;2023-07-08T01:14:22;6.70;;;6.00;;
14892;SDS011;7538;53.626;9.906;2023-07-08T01:16:53;6.43;;;5.82;;
14892;SDS011;7538;53.626;9.906;2023-07-08T01:19:21;6.43;;;5.93;;
14892;SDS011;7538;53.626;9.906;2023-07-08T01:22:01;7.15;;;6.55;;
14892;SDS011;7538;53.626;9.906;2023-07-08T01:24:29;6.60;;;6.00;;
14892;SDS011;7538;53.626;9.906;2023-07-08T01:26:58;7.65;;;6.80;;
14892;SDS011;7538;53.626;9.906;2023-07-08T01:29:28;6.78;;;5.68;;
14892;SDS011;7538;53.626;9.906;2023-07-08T01:31:55;7.32;;;5.78;;
14892;SDS011;7538;53.626;9.906;2023-07-08T01:34:23;6.40;;;5.80;;
14892;SDS011;7538;53.626;9.906;2023-07-08T01:36:51;6.45;;;5.80;;
14892;SDS011;7538;53.626;9.906;2023-07-08T01:39:22;6.60;;;5.70;;
14892;SDS011;7538;53.626;9.906;2023-07-08T01:41:50;6.53;;;5.90;;
14892;SDS011;7538;53.626;9.906;2023-07-08T01:44:19;6.80;;;6.10;;
14892;SDS011;7538;53.626;9.906;2023-07-08T01:46:50;7.00;;;6.28;;
14892;SDS011;7538;53.626;9.906;2023-07-08T01:49:19;6.47;;;5.88;;
14892;SDS011;7538;53.626;9.906;2023-07-08T01:51:47;6.82;;;6.20;;
14892;SDS011;7538;53.626;9.906;2023-07-08T01:54:15;5.93;;;5.10;;
14892;SDS011;7538;53.626;9.906;2023-07-08T01:56:44;9.02;;;6.35;;
14892;SDS011;7538;53.626;9.906;2023-07-08T01:59:10;6.25;;;5.68;;
14892;SDS011;7538;53.626;9.906;2023-07-08T02:01:37;7.30;;;6.13;;
14892;SDS011;7538;53.626;9.906;2023-07-08T02:04:04;7.22;;;5.75;;
14892;SDS011;7538;53.626;9.906;2023-07-08T02:06:31;6.95;;;5.85;;
14892;SDS011;7538;53.626;9.906;2023-07-08T02:08:58;7.35;;;6.60;;
14892;SDS011;7538;53.626;9.906;2023-07-08T02:11:25;6.40;;;5.80;;
14892;SDS011;7538;53.626;9.906;2023-07-08T02:13:53;6.82;;;6.13;;
14892;SDS011;7538;53.626;9.906;2023-07-08T02:16:20;6.63;;;6.03;;
14892;SDS011;7538;53.626;9.906;2023-07-08T02:18:46;7.00;;;6.00;;
14892;SDS011;7538;53.626;9.906;2023-07-08T02:21:13;6.40;;;5.85;;
14892;SDS011;7538;53.626;9.906;2023-07-08T02:23:43;6.90;;;6.22;;
14892;SDS011;7538;53.626;9.906;2023-07-08T02:26:11;7.32;;;6.63;;
14892;SDS011;7538;53.626;9.906;2023-07-08T02:28:37;6.70;;;6.10;;
14892;SDS011;7538;53.626;9.906;2023-07-08T02:31:06;7.60;;;6.53;;
14892;SDS011;7538;53.626;9.906;2023-07-08T02:33:32;6.75;;;6.13;;
14892;SDS011;7538;53.626;9.906;2023-07-08T02:35:59;7.25;;;5.82;;
14892;SDS011;7538;53.626;9.906;2023-07-08T02:38:26;6.72;;;6.03;;
14892;SDS011;7538;53.626;9.906;2023-07-08T02:40:53;6.85;;;6.15;;
14892;SDS011;7538;53.626;9.906;2023-07-08T02:43:20;7.07;;;6.32;;
14892;SDS011;7538;53.626;9.906;2023-07-08T02:45:48;6.97;;;6.25;;
14892;SDS011;7538;53.626;9.906;2023-07-08T02:48:17;6.18;;;5.55;;
14892;SDS011;7538;53.626;9.906;2023-07-08T02:50:44;7.03;;;6.28;;
14892;SDS011;7538;53.626;9.906;2023-07-08T02:53:11;7.70;;;6.55;;
14892;SDS011;7538;53.626;9.906;2023-07-08T02:55:38;7.05;;;6.45;;
14892;SDS011;7538;53.626;9.906;2023-07-08T02:58:07;7.50;;;6.63;;
14892;SDS011;7538;53.626;9.906;2023-07-08T03:00:34;9.23;;;6.57;;
14892;SDS011;7538;53.626;9.906;2023-07-08T03:03:02;7.20;;;6.50;;
14892;SDS011;7538;53.626;9.906;2023-07-08T03:05:30;7.57;;;6.85;;
14892;SDS011;7538;53.626;9.906;2023-07-08T03:07:58;6.65;;;6.07;;
14892;SDS011;7538;53.626;9.906;2023-07-08T03:10:25;7.60;;;6.80;;
14892;SDS011;7538;53.626;9.906;2023-07-08T03:12:52;6.95;;;6.25;;
14892;SDS011;7538;53.626;9.906;2023-07-08T03:15:19;6.55;;;5.95;;
14892;SDS011;7538;53.626;9.906;2023-07-08T03:17:46;8.02;;;6.38;;
14892;SDS011;7538;53.626;9.906;2023-07-08T03:20:12;6.90;;;6.30;;
14892;SDS011;7538;53.626;9.906;2023-07-08T03:22:41;8.93;;;7.28;;
14892;SDS011;7538;53.626;9.906;2023-07-08T03:25:08;6.93;;;6.32;;
14892;SDS011;7538;53.626;9.906;2023-07-08T03:27:35;8.48;;;6.45;;
14892;SDS011;7538;53.626;9.906;2023-07-08T03:30:01;7.20;;;6.40;;
14892;SDS011;7538;53.626;9.906;2023-07-08T03:32:30;7.72;;;6.82;;
14892;SDS011;7538;53.626;9.906;2023-07-08T03:34:57;7.07;;;6.38;;
14892;SDS011;7538;53.626;9.906;2023-07-08T03:37:23;10.00;;;6.07;;
14892;SDS011;7538;53.626;9.906;2023-07-08T03:39:52;8.32;;;7.40;;
14892;SDS011;7538;53.626;9.906;2023-07-08T03:42:19;7.70;;;7.00;;
14892;SDS011;7538;53.626;9.906;2023-07-08T03:44:45;9.00;;;7.10;;
14892;SDS011;7538;53.626;9.906;2023-07-08T03:47:12;7.47;;;6.88;;
14892;SDS011;7538;53.626;9.906;2023-07-08T03:49:39;6.90;;;6.18;;
14892;SDS011;7538;53.626;9.906;2023-07-08T03:52:07;7.65;;;6.60;;
14892;SDS011;7538;53.626;9.906;2023-07-08T03:54:41;6.10;;;5.60;;
14892;SDS011;7538;53.626;9.906;2023-07-08T03:57:09;7.03;;;6.32;;
14892;SDS011;7538;53.626;9.906;2023-07-08T03:59:36;7.88;;;6.30;;
14892;SDS011;7538;53.626;9.906;2023-07-08T04:02:03;8.30;;;6.35;;
14892;SDS011;7538;53.626;9.906;2023-07-08T04:04:30;6.93;;;6.30;;
14892;SDS011;7538;53.626;9.906;2023-07-08T04:06:56;7.30;;;6.10;;
14892;SDS011;7538;53.626;9.906;2023-07-08T04:09:23;6.95;;;6.10;;
14892;SDS011;7538;53.626;9.906;2023-07-08T04:11:50;8.73;;;6.07;;
14892;SDS011;7538;53.626;9.906;2023-07-08T04:14:18;8.07;;;6.47;;
14892;SDS011;7538;53.626;9.906;2023-07-08T04:16:46;6.57;;;5.70;;
14892;SDS011;7538;53.626;9.906;2023-07-08T04:19:16;7.60;;;6.20;;
14892;SDS011;7538;53.626;9.906;2023-07-08T04:21:43;6.40;;;5.80;;
14892;SDS011;7538;53.626;9.906;2023-07-08T04:24:11;6.95;;;5.65;;
14892;SDS011;7538;53.626;9.906;2023-07-08T04:26:39;5.90;;;5.28;;
14892;SDS011;7538;53.626;9.906;2023-07-08T04:29:08;6.07;;;5.55;;
14892;SDS011;7538;53.626;9.906;2023-07-08T04:31:38;6.82;;;5.40;;
14892;SDS011;7538;53.626;9.906;2023-07-08T04:34:06;6.13;;;5.50;;
14892;SDS011;7538;53.626;9.906;2023-07-08T04:36:34;7.05;;;5.55;;
14892;SDS011;7538;53.626;9.906;2023-07-08T04:39:01;5.22;;;4.60;;
14892;SDS011;7538;53.626;9.906;2023-07-08T04:41:28;6.97;;;5.10;;
14892;SDS011;7538;53.626;9.906;2023-07-08T04:43:55;6.13;;;5.00;;
14892;SDS011;7538;53.626;9.906;2023-07-08T04:46:24;5.10;;;4.60;;
14892;SDS011;7538;53.626;9.906;2023-07-08T04:49:01;7.05;;;5.15;;
14892;SDS011;7538;53.626;9.906;2023-07-08T04:51:29;4.95;;;4.45;;
14892;SDS011;7538;53.626;9.906;2023-07-08T04:53:56;5.15;;;4.38;;
14892;SDS011;7538;53.626;9.906;2023-07-08T04:56:25;5.10;;;4.60;;
14892;SDS011;7538;53.626;9.906;2023-07-08T04:59:01;6.32;;;5.40;;
14892;SDS011;7538;53.626;9.906;2023-07-08T05:01:28;6.35;;;5.18;;
14892;SDS011;7538;53.626;9.906;2023-07-08T05:03:55;6.07;;;4.90;;
14892;SDS011;7538;53.626;9.906;2023-07-08T05:06:24;4.80;;;4.30;;
14892;SDS011;7538;53.626;9.906;2023-07-08T05:08:51;6.35;;;4.35;;
14892;SDS011;7538;53.626;9.906;2023-07-08T05:11:18;6.47;;;4.68;;
14892;SDS011;7538;53.626;9.906;2023-07-08T05:13:44;7.03;;;4.28;;
14892;SDS011;7538;53.626;9.906;2023-07-08T05:16:11;6.72;;;3.67;;
14892;SDS011;7538;53.626;9.906;2023-07-08T05:18:38;6.50;;;4.30;;
14892;SDS011;7538;53.626;9.906;2023-07-08T05:21:05;4.70;;;4.00;;
14892;SDS011;7538;53.626;9.906;2023-07-08T05:23:34;3.92;;;3.33;;
14892;SDS011;7538;53.626;9.906;2023-07-08T05:26:01;4.72;;;3.60;;
14892;SDS011;7538;53.626;9.906;2023-07-08T05:28:29;6.13;;;4.32;;
14892;SDS011;7538;53.626;9.906;2023-07-08T05:30:56;5.05;;;3.78;;
14892;SDS011;7538;53.626;9.906;2023-07-08T05:33:23;5.38;;;3.35;;
14892;SDS011;7538;53.626;9.906;2023-07-08T05:35:50;4.72;;;3.63;;
14892;SDS011;7538;53.626;9.906;2023-07-08T05:38:17;4.82;;;3.55;;
14892;SDS011;7538;53.626;9.906;2023-07-08T05:40:49;3.97;;;3.58;;
14892;SDS011;7538;53.626;9.906;2023-07-08T05:43:16;3.97;;;3.58;;
14892;SDS011;7538;53.626;9.906;2023-07-08T05:45:43;4.30;;;3.45;;
14892;SDS011;7538;53.626;9.906;2023-07-08T05:48:10;3.83;;;3.53;;
14892;SDS011;7538;53.626;9.906;2023-07-08T05:50:37;4.13;;;3.40;;
14892;SDS011;7538;53.626;9.906;2023-07-08T05:53:05;4.25;;;3.30;;
14892;SDS011;7538;53.626;9.906;2023-07-08T05:55:32;4.75;;;3.30;;
14892;SDS011;7538;53.626;9.906;2023-07-08T05:58:00;4.82;;;3.60;;
14892;SDS011;7538;53.626;9.906;2023-07-08T06:00:27;5.18;;;3.58;;
14892;SDS011;7538;53.626;9.906;2023-07-08T06:02:54;5.28;;;3.38;;
14892;SDS011;7538;53.626;9.906;2023-07-08T06:05:20;5.63;;;3.67;;
14892;SDS011;7538;53.626;9.906;2023-07-08T06:07:47;5.43;;;3.50;;
14892;SDS011;7538;53.626;9.906;2023-07-08T06:10:14;3.83;;;3.30;;
14892;SDS011;7538;53.626;9.906;2023-07-08T06:12:41;3.65;;;3.13;;
14892;SDS011;7538;53.626;9.906;2023-07-08T06:15:09;3.35;;;2.80;;
14892;SDS011;7538;53.626;9.906;2023-07-08T06:17:37;5.32;;;3.40;;
14892;SDS011;7538;53.626;9.906;2023-07-08T06:20:04;5.10;;;3.30;;
14892;SDS011;7538;53.626;9.906;2023-07-08T06:22:32;4.35;;;3.25;;
14892;SDS011;7538;53.626;9.906;2023-07-08T06:24:59;3.45;;;2.78;;
14892;SDS011;7538;53.626;9.906;2023-07-08T06:27:26;3.80;;;3.30;;
14892;SDS011;7538;53.626;9.906;2023-07-08T06:29:53;4.65;;;3.50;;
14892;SDS011;7538;53.626;9.906;2023-07-08T06:32:21;4.10;;;2.53;;
14892;SDS011;7538;53.626;9.906;2023-07-08T06:34:48;3.80;;;3.40;;
14892;SDS011;7538;53.626;9.906;2023-07-08T06:37:14;3.58;;;3.00;;
14892;SDS011;7538;53.626;9.906;2023-07-08T06:39:41;3.75;;;3.30;;
14892;SDS011;7538;53.626;9.906;2023-07-08T06:42:08;3.53;;;2.78;;
14892;SDS011;7538;53.626;9.906;2023-07-08T06:44:35;3.20;;;2.90;;
14892;SDS011;7538;53.626;9.906;2023-07-08T06:47:03;5.85;;;3.05;;
14892;SDS011;7538;53.626;9.906;2023-07-08T06:49:31;4.97;;;3.10;;
14892;SDS011;7538;53.626;9.906;2023-07-08T06:51:58;5.55;;;2.90;;
14892;SDS011;7538;53.626;9.906;2023-07-08T06:54:25;4.00;;;2.95;;
14892;SDS011;7538;53.626;9.906;2023-07-08T06:56:53;7.25;;;3.30;;
14892;SDS011;7538;53.626;9.906;2023-07-08T06:59:20;3.60;;;2.97;;
14892;SDS011;7538;53.626;9.906;2023-07-08T07:01:46;4.18;;;3.00;;
14892;SDS011;7538;53.626;9.906;2023-07-08T07:04:13;4.00;;;3.28;;
14892;SDS011;7538;53.626;9.906;2023-07-08T07:06:42;3.67;;;3.30;;
14892;SDS011;7538;53.626;9.906;2023-07-08T07:09:08;3.28;;;2.97;;
14892;SDS011;7538;53.626;9.906;2023-07-08T07:11:35;4.10;;;2.92;;
14892;SDS011;7538;53.626;9.906;2023-07-08T07:14:02;3.85;;;3.30;;
14892;SDS011;7538;53.626;9.906;2023-07-08T07:16:29;3.22;;;2.92;;
14892;SDS011;7538;53.626;9.906;2023-07-08T07:18:56;4.57;;;3.00;;
14892;SDS011;7538;53.626;9.906;2023-07-08T07:21:23;3.05;;;2.85;;
14892;SDS011;7538;53.626;9.906;2023-07-08T07:23:51;4.53;;;2.75;;
14892;SDS011;7538;53.626;9.906;2023-07-08T07:26:18;3.58;;;2.75;;
14892;SDS011;7538;53.626;9.906;2023-07-08T07:28:45;3.92;;;2.75;;
14892;SDS011;7538;53.626;9.906;2023-07-08T07:31:12;3.22;;;2.85;;
14892;SDS011;7538;53.626;9.906;2023-07-08T07:33:38;3.00;;;2.70;;
14892;SDS011;7538;53.626;9.906;2023-07-08T07:36:05;5.50;;;2.90;;
14892;SDS011;7538;53.626;9.906;2023-07-08T07:38:32;2.90;;;2.38;;
14892;SDS011;7538;53.626;9.906;2023-07-08T07:41:01;4.50;;;3.05;;
14892;SDS011;7538;53.626;9.906;2023-07-08T07:43:31;4.13;;;3.22;;
14892;SDS011;7538;53.626;9.906;2023-07-08T07:45:58;3.22;;;2.88;;
14892;SDS011;7538;53.626;9.906;2023-07-08T07:48:25;3.53;;;2.80;;
14892;SDS011;7538;53.626;9.906;2023-07-08T07:50:52;4.05;;;2.60;;
14892;SDS011;7538;53.626;9.906;2023-07-08T07:53:19;4.25;;;2.90;;
14892;SDS011;7538;53.626;9.906;2023-07-08T07:55:45;4.05;;;3.08;;
14892;SDS011;7538;53.626;9.906;2023-07-08T07:58:14;3.08;;;2.88;;
14892;SDS011;7538;53.626;9.906;2023-07-08T08:00:40;5.65;;;2.97;;
14892;SDS011;7538;53.626;9.906;2023-07-08T08:03:07;3.20;;;2.80;;
14892;SDS011;7538;53.626;9.906;2023-07-08T08:05:34;3.85;;;2.72;;
14892;SDS011;7538;53.626;9.906;2023-07-08T08:08:01;6.47;;;3.55;;
14892;SDS011;7538;53.626;9.906;2023-07-08T08:10:28;4.75;;;3.10;;
14892;SDS011;7538;53.626;9.906;2023-07-08T08:12:55;3.22;;;2.92;;
14892;SDS011;7538;53.626;9.906;2023-07-08T08:15:24;3.72;;;2.65;;
14892;SDS011;7538;53.626;9.906;2023-07-08T08:17:51;3.85;;;3.10;;
14892;SDS011;7538;53.626;9.906;2023-07-08T08:20:18;4.70;;;3.10;;
14892;SDS011;7538;53.626;9.906;2023-07-08T08:22:45;3.20;;;2.90;;
14892;SDS011;7538;53.626;9.906;2023-07-08T08:25:13;3.80;;;3.05;;
14892;SDS011;7538;53.626;9.906;2023-07-08T08:27:41;3.72;;;2.95;;
14892;SDS011;7538;53.626;9.906;2023-07-08T08:30:09;3.42;;;2.75;;
14892;SDS011;7538;53.626;9.906;2023-07-08T08:32:38;3.40;;;3.10;;
14892;SDS011;7538;53.626;9.906;2023-07-08T08:35:05;4.97;;;3.20;;
14892;SDS011;7538;53.626;9.906;2023-07-08T08:37:32;3.10;;;2.80;;
14892;SDS011;7538;53.626;9.906;2023-07-08T08:39:59;4.55;;;2.80;;
14892;SDS011;7538;53.626;9.906;2023-07-08T08:42:27;3.58;;;2.80;;
14892;SDS011;7538;53.626;9.906;2023-07-08T08:44:57;4.68;;;2.35;;
14892;SDS011;7538;53.626;9.906;2023-07-08T08:47:27;4.35;;;3.35;;
14892;SDS011;7538;53.626;9.906;2023-07-08T08:50:03;2.97;;;2.70;;
14892;SDS011;7538;53.626;9.906;2023-07-08T08:52:38;3.58;;;2.70;;
14892;SDS011;7538;53.626;9.906;2023-07-08T08:55:08;3.92;;;2.97;;
14892;SDS011;7538;53.626;9.906;2023-07-08T08:57:40;3.47;;;3.00;;
14892;SDS011;7538;53.626;9.906;2023-07-08T09:00:12;2.95;;;2.60;;
14892;SDS011;7538;53.626;9.906;2023-07-08T09:02:47;4.47;;;2.85;;
14892;SDS011;7538;53.626;9.906;2023-07-08T09:05:21;3.30;;;3.03;;
14892;SDS011;7538;53.626;9.906;2023-07-08T09:07:53;2.78;;;2.58;;
14892;SDS011;7538;53.626;9.906;2023-07-08T09:10:29;3.17;;;2.97;;
14892;SDS011;7538;53.626;9.906;2023-07-08T09:13:08;2.78;;;2.55;;
14892;SDS011;7538;53.626;9.906;2023-07-08T09:15:42;3.67;;;2.97;;
14892;SDS011;7538;53.626;9.906;2023-07-08T09:18:15;3.25;;;2.90;;
14892;SDS011;7538;53.626;9.906;2023-07-08T09:20:48;3.25;;;2.60;;
14892;SDS011;7538;53.626;9.906;2023-07-08T09:23:17;3.47;;;3.03;;
14892;SDS011;7538;53.626;9.906;2023-07-08T09:25:49;3.15;;;2.85;;
14892;SDS011;7538;53.626;9.906;2023-07-08T09:28:37;3.90;;;2.90;;
14892;SDS011;7538;53.626;9.906;2023-07-08T09:31:06;3.97;;;2.78;;
14892;SDS011;7538;53.626;9.906;2023-07-08T09:33:37;3.42;;;2.60;;
14892;SDS011;7538;53.626;9.906;2023-07-08T09:36:15;3.17;;;2.88;;
14892;SDS011;7538;53.626;9.906;2023-07-08T09:38:46;2.72;;;2.53;;
14892;SDS011;7538;53.626;9.906;2023-07-08T09:41:17;3.85;;;3.22;;
14892;SDS011;7538;53.626;9.906;2023-07-08T09:46:51;3.30;;;3.00;;
14892;SDS011;7538;53.626;9.906;2023-07-08T09:49:19;4.13;;;3.15;;
14892;SDS011;7538;53.626;9.906;2023-07-08T09:51:50;3.95;;;2.85;;
14892;SDS011;7538;53.626;9.906;2023-07-08T09:54:18;3.40;;;3.08;;
14892;SDS011;7538;53.626;9.906;2023-07-08T09:56:50;3.40;;;3.10;;
14892;SDS011;7538;53.626;9.906;2023-07-08T09:59:22;4.55;;;3.30;;
14892;SDS011;7538;53.626;9.906;2023-07-08T10:01:53;3.67;;;3.38;;
14892;SDS011;7538;53.626;9.906;2023-07-08T10:04:20;4.88;;;3.13;;
14892;SDS011;7538;53.626;9.906;2023-07-08T10:06:49;3.75;;;3.10;;
14892;SDS011;7538;53.626;9.906;2023-07-08T10:09:19;3.83;;;3.20;;
14892;SDS011;7538;53.626;9.906;2023-07-08T10:11:51;3.80;;;2.90;;
14892;SDS011;7538;53.626;9.906;2023-07-08T10:14:24;3.38;;;3.08;;
14892;SDS011;7538;53.626;9.906;2023-07-08T10:16:53;3.90;;;3.50;;
14892;SDS011;7538;53.626;9.906;2023-07-08T10:19:20;4.72;;;3.00;;
14892;SDS011;7538;53.626;9.906;2023-07-08T10:21:51;4.25;;;3.08;;
14892;SDS011;7538;53.626;9.906;2023-07-08T10:24:41;3.40;;;3.10;;
14892;SDS011;7538;53.626;9.906;2023-07-08T10:27:22;3.65;;;3.15;;
14892;SDS011;7538;53.626;9.906;2023-07-08T10:29:54;3.83;;;3.47;;
14892;SDS011;7538;53.626;9.906;2023-07-08T10:32:34;3.35;;;3.05;;
14892;SDS011;7538;53.626;9.906;2023-07-08T10:35:12;3.40;;;3.10;;
14892;SDS011;7538;53.626;9.906;2023-07-08T10:37:50;6.55;;;3.42;;
14892;SDS011;7538;53.626;9.906;2023-07-08T10:40:28;3.38;;;3.08;;
14892;SDS011;7538;53.626;9.906;2023-07-08T10:43:12;3.15;;;2.83;;
14892;SDS011;7538;53.626;9.906;2023-07-08T10:45:51;3.78;;;3.42;;
14892;SDS011;7538;53.626;9.906;2023-07-08T10:51:20;4.55;;;3.30;;
14892;SDS011;7538;53.626;9.906;2023-07-08T10:54:02;3.65;;;3.25;;
14892;SDS011;7538;53.626;9.906;2023-07-08T10:56:40;4.65;;;3.40;;
14892;SDS011;7538;53.626;9.906;2023-07-08T10:59:19;3.50;;;3.20;;
14892;SDS011;7538;53.626;9.906;2023-07-08T11:02:07;3.22;;;2.95;;
14892;SDS011;7538;53.626;9.906;2023-07-08T11:04:55;3.85;;;3.15;;
14892;SDS011;7538;53.626;9.906;2023-07-08T11:07:29;3.90;;;2.90;;
14892;SDS011;7538;53.626;9.906;2023-07-08T11:10:05;3.50;;;3.17;;
14892;SDS011;7538;53.626;9.906;2023-07-08T11:12:41;5.00;;;3.70;;
14892;SDS011;7538;53.626;9.906;2023-07-08T11:15:13;4.60;;;3.40;;
14892;SDS011;7538;53.626;9.906;2023-07-08T11:17:46;3.75;;;3.10;;
14892;SDS011;7538;53.626;9.906;2023-07-08T11:20:18;3.22;;;3.00;;
14892;SDS011;7538;53.626;9.906;2023-07-08T11:22:52;3.47;;;3.08;;
14892;SDS011;7538;53.626;9.906;2023-07-08T11:25:26;4.82;;;3.20;;
14892;SDS011;7538;53.626;9.906;2023-07-08T11:27:55;3.45;;;3.20;;
14892;SDS011;7538;53.626;9.906;2023-07-08T11:30:24;3.70;;;3.35;;
14892;SDS011;7538;53.626;9.906;2023-07-08T11:32:56;3.10;;;2.88;;
14892;SDS011;7538;53.626;9.906;2023-07-08T11:35:29;4.18;;;3.40;;
14892;SDS011;7538;53.626;9.906;2023-07-08T11:38:02;3.30;;;3.00;;
14892;SDS011;7538;53.626;9.906;2023-07-08T11:40:31;3.20;;;2.90;;
14892;SDS011;7538;53.626;9.906;2023-07-08T11:43:04;3.15;;;2.83;;
14892;SDS011;7538;53.626;9.906;2023-07-08T11:45:32;3.97;;;3.17;;
14892;SDS011;7538;53.626;9.906;2023-07-08T11:48:05;3.42;;;3.13;;
14892;SDS011;7538;53.626;9.906;2023-07-08T11:50:38;3.55;;;3.25;;
14892;SDS011;7538;53.626;9.906;2023-07-08T11:53:08;5.45;;;2.83;;
14892;SDS011;7538;53.626;9.906;2023-07-08T11:55:38;4.85;;;3.13;;
14892;SDS011;7538;53.626;9.906;2023-07-08T11:58:16;5.45;;;3.25;;
14892;SDS011;7538;53.626;9.906;2023-07-08T12:00:51;4.05;;;3.03;;
14892;SDS011;7538;53.626;9.906;2023-07-08T12:03:23;3.90;;;3.20;;
14892;SDS011;7538;53.626;9.906;2023-07-08T12:06:00;3.20;;;2.90;;
14892;SDS011;7538;53.626;9.906;2023-07-08T12:08:33;3.55;;;2.97;;
14892;SDS011;7538;53.626;9.906;2023-07-08T12:11:04;3.38;;;3.05;;
14892;SDS011;7538;53.626;9.906;2023-07-08T12:13:36;3.72;;;3.42;;
14892;SDS011;7538;53.626;9.906;2023-07-08T12:16:04;4.28;;;3.30;;
14892;SDS011;7538;53.626;9.906;2023-07-08T12:18:36;3.50;;;3.00;;
14892;SDS011;7538;53.626;9.906;2023-07-08T12:21:10;6.15;;;3.38;;
14892;SDS011;7538;53.626;9.906;2023-07-08T12:23:43;4.45;;;3.53;;
14892;SDS011;7538;53.626;9.906;2023-07-08T12:26:12;3.90;;;3.42;;
14892;SDS011;7538;53.626;9.906;2023-07-08T12:28:40;3.33;;;3.03;;
14892;SDS011;7538;53.626;9.906;2023-07-08T12:31:09;4.22;;;3.45;;
14892;SDS011;7538;53.626;9.906;2023-07-08T12:33:41;3.45;;;3.15;;
14892;SDS011;7538;53.626;9.906;2023-07-08T12:36:10;4.10;;;3.70;;
14892;SDS011;7538;53.626;9.906;2023-07-08T12:38:39;3.90;;;3.50;;
14892;SDS011;7538;53.626;9.906;2023-07-08T12:41:12;3.72;;;3.38;;
14892;SDS011;7538;53.626;9.906;2023-07-08T12:43:42;3.40;;;3.10;;
14892;SDS011;7538;53.626;9.906;2023-07-08T12:46:10;3.78;;;2.90;;
14892;SDS011;7538;53.626;9.906;2023-07-08T12:48:38;3.80;;;2.80;;
14892;SDS011;7538;53.626;9.906;2023-07-08T12:51:06;4.50;;;3.50;;
14892;SDS011;7538;53.626;9.906;2023-07-08T12:53:37;5.10;;;2.95;;
14892;SDS011;7538;53.626;9.906;2023-07-08T12:56:04;3.83;;;3.13;;
14892;SDS011;7538;53.626;9.906;2023-07-08T12:58:33;3.50;;;3.20;;
14892;SDS011;7538;53.626;9.906;2023-07-08T13:01:03;4.28;;;3.40;;
14892;SDS011;7538;53.626;9.906;2023-07-08T13:03:33;5.03;;;3.50;;
14892;SDS011;7538;53.626;9.906;2023-07-08T13:06:04;4.47;;;3.60;;
14892;SDS011;7538;53.626;9.906;2023-07-08T13:08:33;3.25;;;3.05;;
14892;SDS011;7538;53.626;9.906;2023-07-08T13:11:03;3.80;;;3.00;;
14892;SDS011;7538;53.626;9.906;2023-07-08T13:13:33;3.58;;;3.08;;
14892;SDS011;7538;53.626;9.906;2023-07-08T13:16:01;3.63;;;3.25;;
14892;SDS011;7538;53.626;9.906;2023-07-08T13:18:30;3.45;;;3.15;;
14892;SDS011;7538;53.626;9.906;2023-07-08T13:20:59;4.00;;;3.70;;
14892;SDS011;7538;53.626;9.906;2023-07-08T13:23:27;4.22;;;2.72;;
14892;SDS011;7538;53.626;9.906;2023-07-08T13:25:55;3.60;;;2.80;;
14892;SDS011;7538;53.626;9.906;2023-07-08T13:28:23;3.10;;;2.83;;
14892;SDS011;7538;53.626;9.906;2023-07-08T13:30:53;3.63;;;3.33;;
14892;SDS011;7538;53.626;9.906;2023-07-08T13:33:21;5.05;;;3.60;;
14892;SDS011;7538;53.626;9.906;2023-07-08T13:35:49;5.43;;;4.43;;
14892;SDS011;7538;53.626;9.906;2023-07-08T13:38:18;4.18;;;3.60;;
14892;SDS011;7538;53.626;9.906;2023-07-08T13:40:47;3.95;;;3.55;;
14892;SDS011;7538;53.626;9.906;2023-07-08T13:43:15;3.53;;;3.22;;
14892;SDS011;7538;53.626;9.906;2023-07-08T13:45:49;3.58;;;3.28;;
14892;SDS011;7538;53.626;9.906;2023-07-08T13:48:21;4.82;;;3.80;;
14892;SDS011;7538;53.626;9.906;2023-07-08T13:50:53;3.58;;;3.25;;
14892;SDS011;7538;53.626;9.906;2023-07-08T13:53:24;4.22;;;3.33;;
14892;SDS011;7538;53.626;9.906;2023-07-08T13:56:00;5.68;;;3.58;;
14892;SDS011;7538;53.626;9.906;2023-07-08T13:58:29;4.20;;;3.40;;
14892;SDS011;7538;53.626;9.906;2023-07-08T14:00:56;4.32;;;3.50;;
14892;SDS011;7538;53.626;9.906;2023-07-08T14:03:25;4.60;;;3.65;;
14892;SDS011;7538;53.626;9.906;2023-07-08T14:05:52;4.22;;;3.67;;
14892;SDS011;7538;53.626;9.906;2023-07-08T14:08:19;3.88;;;3.58;;
14892;SDS011;7538;53.626;9.906;2023-07-08T14:10:47;4.43;;;3.38;;
14892;SDS011;7538;53.626;9.906;2023-07-08T14:13:14;3.95;;;3.47;;
14892;SDS011;7538;53.626;9.906;2023-07-08T14:15:42;4.68;;;3.65;;
14892;SDS011;7538;53.626;9.906;2023-07-08T14:18:09;6.07;;;3.40;;
14892;SDS011;7538;53.626;9.906;2023-07-08T14:20:38;4.22;;;3.53;;
14892;SDS011;7538;53.626;9.906;2023-07-08T14:23:07;3.92;;;3.25;;
14892;SDS011;7538;53.626;9.906;2023-07-08T14:25:35;4.15;;;3.53;;
14892;SDS011;7538;53.626;9.906;2023-07-08T14:28:02;3.90;;;3.60;;
14892;SDS011;7538;53.626;9.906;2023-07-08T14:30:31;4.68;;;3.97;;
14892;SDS011;7538;53.626;9.906;2023-07-08T14:32:58;4.45;;;3.80;;
14892;SDS011;7538;53.626;9.906;2023-07-08T14:35:25;4.80;;;4.00;;
14892;SDS011;7538;53.626;9.906;2023-07-08T14:37:55;4.43;;;4.03;;
14892;SDS011;7538;53.626;9.906;2023-07-08T14:40:24;3.72;;;3.35;;
14892;SDS011;7538;53.626;9.906;2023-07-08T14:42:55;3.85;;;3.30;;
14892;SDS011;7538;53.626;9.906;2023-07-08T14:45:25;4.72;;;3.63;;
14892;SDS011;7538;53.626;9.906;2023-07-08T14:47:52;4.70;;;3.72;;
14892;SDS011;7538;53.626;9.906;2023-07-08T14:50:19;5.07;;;3.85;;
14892;SDS011;7538;53.626;9.906;2023-07-08T14:52:46;4.65;;;4.13;;
14892;SDS011;7538;53.626;9.906;2023-07-08T14:55:15;4.75;;;3.53;;
14892;SDS011;7538;53.626;9.906;2023-07-08T14:57:43;5.78;;;3.45;;
14892;SDS011;7538;53.626;9.906;2023-07-08T15:00:13;4.25;;;3.70;;
14892;SDS011;7538;53.626;9.906;2023-07-08T15:02:41;4.68;;;3.80;;
14892;SDS011;7538;53.626;9.906;2023-07-08T15:05:12;3.90;;;3.50;;
14892;SDS011;7538;53.626;9.906;2023-07-08T15:07:41;5.65;;;3.70;;
14892;SDS011;7538;53.626;9.906;2023-07-08T15:10:08;4.00;;;3.42;;
14892;SDS011;7538;53.626;9.906;2023-07-08T15:12:37;5.82;;;4.63;;
14892;SDS011;7538;53.626;9.906;2023-07-08T15:15:04;4.05;;;3.70;;
14892;SDS011;7538;53.626;9.906;2023-07-08T15:17:40;4.50;;;3.40;;
14892;SDS011;7538;53.626;9.906;2023-07-08T15:20:09;3.53;;;3.22;;